Time;durP1;ratioP1;P1;durP2;ratioP2;P2;SDS_P1;SDS_P2;PMS_P1;PMS_P2;Temp;Humidity;BMP_temperature;BMP_pressure;BME280_temperature;BME280_humidity;BME280_pressure;Samples;Min_cycle;Max_cycle;Signal;HPM_P1;HPM_P2
2023/07/03 05:08:47;;;;;;;;;;;;;;;;;;;;;
2023/07/03 05:26:59;;;;;;;;;;;;;;;;;;;;;
2023/07/03 06:18:07;;;;;;;;;;;15.00;72.50;;;;;;6124191;23;19969;-96
2023/07/03 06:28:02;;;;;;;;;;;15.40;71.50;;;;;;5981071;24;19955;-96
2023/07/03 06:37:43;;;;;;;;;;;15.50;69.10;;;;;;5953749;23;19923;-96
2023/07/03 06:40:15;;;;;;;;;;;15.30;70.10;;;;;;5983339;24;19929;-95
2023/07/03 06:52:53;;;;;;;;;;;14.20;75.10;;;;;;5959629;23;19922;-96
2023/07/03 07:02:29;;;;;;;;;;;14.30;75.30;;;;;;6009602;23;19922;-96
2023/07/03 07:08:22;;;;;;;;;;;14.50;74.60;;;;;;5972248;24;19922;-96
2023/07/03 07:14:06;;;;;;;;;;;14.80;72.80;;;;;;6000614;23;19922;-95
2023/07/03 07:20:15;;;;;;;;;;;15.00;70.80;;;;;;6031492;23;19926;-96
2023/07/03 07:26:57;;;;;;;;;;;;;;;;;;;;;
2023/07/03 07:29:26;;;;;;;;;;;15.00;70.50;;;;;;6096330;23;19963;-93
2023/07/03 07:31:57;;;;;;;;;;;15.00;70.60;;;;;;6101759;23;19921;-96
2023/07/03 07:34:29;;;;;;;;;;;15.00;71.00;;;;;;6190777;23;19933;-93
2023/07/03 07:36:55;;;;;;;;;;;15.00;71.10;;;;;;6204623;23;19916;-92
2023/07/03 07:40:00;;;;;;;;;;;15.00;71.20;;;;;;6184712;23;19977;-94
2023/07/03 07:42:40;;;;;;;;;;;15.00;71.20;;;;;;6246442;23;20261;-95
2023/07/03 07:45:07;;;;;;;;;;;15.10;70.60;;;;;;6226600;23;19916;-96
2023/07/03 07:48:24;;;;;;;;;;;;;;;;;;;;;
2023/07/03 07:51:28;;;;;;;;;;;15.20;70.30;;;;;;6143120;23;19944;-96
2023/07/03 08:03:57;;;;;;;;;;;15.60;70.10;;;;;;5978606;23;20055;-93
2023/07/03 08:13:35;;;;;;;;;;;15.60;65.40;;;;;;6230248;22;19938;-95
2023/07/03 08:19:23;;;;;;;;;;;15.50;65.70;;;;;;6046157;23;19921;-90
2023/07/03 08:22:16;;;;;;;;;;;15.50;65.70;;;;;;6040091;23;19925;-96
2023/07/03 08:24:54;;;;;;;;;;;;;;;;;;;;;
2023/07/03 08:27:23;;;;;;;;;;;15.80;65.00;;;;;;5986670;23;19928;-91
2023/07/03 08:30:54;;;;;;;;;;;15.90;65.60;;;;;;5988600;23;19977;-91
2023/07/03 08:34:10;;;;;;;;;;;;;;;;;;;;;
2023/07/03 08:36:53;;;;;;;;;;;16.00;65.20;;;;;;5968746;23;19918;-88
2023/07/03 08:39:22;;;;;;;;;;;16.00;64.70;;;;;;6005762;23;19944;-89
2023/07/03 08:42:13;;;;;;;;;;;16.10;64.10;;;;;;6005619;23;19925;-92
2023/07/03 08:44:44;;;;;;;;;;;16.20;64.00;;;;;;6003328;23;19988;-95
2023/07/03 08:47:47;;;;;;;;;;;16.30;64.10;;;;;;6040823;23;19921;-92
2023/07/03 08:51:07;;;;;;;;;;;16.40;63.00;;;;;;6003301;23;19921;-93
2023/07/03 08:56:45;;;;;;;;;;;16.40;63.20;;;;;;5946121;23;19922;-93
2023/07/03 08:59:11;;;;;;;;;;;16.40;62.60;;;;;;6000687;23;20486;-94
2023/07/03 09:01:54;;;;;;;;;;;16.20;63.50;;;;;;6001690;23;19929;-93
2023/07/03 09:04:29;;;;;;;;;;;16.20;64.90;;;;;;5989046;23;20009;-96
2023/07/03 09:07:09;;;;;;;;;;;16.00;64.20;;;;;;6157360;23;19920;-93
2023/07/03 09:10:10;;;;;;;;;;;15.80;64.90;;;;;;6155373;23;20005;-93
2023/07/03 09:19:53;;;;;;;;;;;16.00;66.20;;;;;;6037015;23;19922;-94
2023/07/03 09:26:01;;;;;;;;;;;16.00;67.20;;;;;;6194847;23;19923;-92
2023/07/03 09:42:07;;;;;;;;;;;16.40;66.90;;;;;;6033803;23;19933;-93
2023/07/03 09:51:41;;;;;;;;;;;16.00;67.20;;;;;;6088959;23;20121;-93
2023/07/03 10:01:45;;;;;;;;;;;;;;;;;;;;;
2023/07/03 10:05:16;;;;;;;;;;;16.10;68.60;;;;;;5920382;24;20684;-96
2023/07/03 10:18:35;;;;;;;;;;;15.80;68.00;;;;;;5004253;28;19933;-96
2023/07/03 10:55:41;;;;;;;;;;;15.80;65.40;;;;;;4981782;28;19975;-92
2023/07/03 11:02:25;;;;;;;;;;;;;;;;;;;;;
2023/07/03 11:05:56;;;;;;;;;;;16.50;66.20;;;;;;4865589;29;19931;-96
2023/07/03 11:12:29;;;;;;;;;;;;;;;;;;;;;
2023/07/03 11:18:53;;;;;;;;;;;16.90;64.50;;;;;;4846360;29;19983;-96
2023/07/03 11:22:00;;;;;;;;;;;17.00;64.10;;;;;;4816578;29;19928;-92
2023/07/03 11:24:35;;;;;;;;;;;16.90;63.40;;;;;;5010443;28;19971;-94
2023/07/03 11:27:39;;;;;;;;;;;16.80;62.00;;;;;;4987009;28;19978;-94
2023/07/03 11:30:07;;;;;;;;;;;16.80;62.20;;;;;;4930381;28;20045;-95
2023/07/03 11:32:35;;;;;;;;;;;16.70;62.90;;;;;;4989017;28;20393;-92
2023/07/03 11:35:30;;;;;;;;;;;16.70;62.80;;;;;;4982175;28;20052;-96
2023/07/03 11:38:02;;;;;;;;;;;16.60;63.50;;;;;;4956278;28;19922;-95
2023/07/03 11:47:40;;;;;;;;;;;16.60;63.70;;;;;;4915174;29;20397;-94
2023/07/03 11:50:30;;;;;;;;;;;16.60;63.20;;;;;;4849546;29;19935;-94
2023/07/03 11:56:41;;;;;;;;;;;;;;;;;;;;;
2023/07/03 11:59:42;;;;;;;;;;;16.60;62.70;;;;;;4910113;29;19927;-95
2023/07/03 12:15:32;;;;;;;;;;;16.70;62.00;;;;;;5255854;23;20394;-96
2023/07/03 12:18:08;;;;;;;;;;;16.70;62.90;;;;;;4917009;29;19941;-96
2023/07/03 12:24:16;;;;;;;;;;;16.60;61.80;;;;;;4926004;29;19981;-95
2023/07/03 12:27:23;;;;;;;;;;;16.60;61.70;;;;;;4914372;29;19934;-96
2023/07/03 12:30:07;;;;;;;;;;;;;;;;;;;;;
2023/07/03 12:33:06;;;;;;;;;;;16.40;62.30;;;;;;4992542;28;19921;-96
2023/07/03 12:35:45;;;;;;;;;;;;;;;;;;;;;
2023/07/03 12:38:33;;;;;;;;;;;16.40;62.10;;;;;;4952278;29;20800;-96
2023/07/03 13:04:56;;;;;;;;;;;16.80;59.00;;;;;;4903925;28;19946;-96
2023/07/03 13:07:37;;;;;;;;;;;16.90;60.40;;;;;;4861222;29;19943;-96
2023/07/03 13:10:17;;;;;;;;;;;16.90;60.00;;;;;;4929007;28;19934;-96
2023/07/03 13:12:45;;;;;;;;;;;17.00;60.70;;;;;;4897132;29;20989;-96
2023/07/03 13:15:34;;;;;;;;;;;17.20;59.70;;;;;;4896468;29;19989;-95
2023/07/03 13:18:20;;;;;;;;;;;17.40;59.20;;;;;;4908344;28;19956;-96
2023/07/03 13:20:56;;;;;;;;;;;17.50;58.80;;;;;;4931256;28;20059;-95
2023/07/03 13:27:00;;;;;;;;;;;17.50;59.10;;;;;;4827880;29;19931;-96
2023/07/03 13:29:34;;;;;;;;;;;17.50;59.50;;;;;;4824142;29;19936;-92
2023/07/03 13:32:13;;;;;;;;;;;17.50;58.50;;;;;;4820498;29;19932;-96
2023/07/03 13:35:21;;;;;;;;;;;17.50;58.40;;;;;;4826500;29;19955;-96
2023/07/03 13:37:54;;;;;;;;;;;17.60;58.90;;;;;;4834028;29;19942;-96
2023/07/03 13:40:20;;;;;;;;;;;17.80;57.50;;;;;;4840113;29;20344;-95
2023/07/03 13:42:57;;;;;;;;;;;17.70;57.50;;;;;;4899857;29;19934;-94
2023/07/03 13:45:39;;;;;;;;;;;17.50;57.50;;;;;;4922486;28;19945;-96
2023/07/03 13:48:38;;;;;;;;;;;;;;;;;;;;;
2023/07/03 13:51:17;;;;;;;;;;;17.50;57.80;;;;;;4934033;28;19926;-94
2023/07/03 13:54:06;;;;;;;;;;;17.60;57.20;;;;;;4894137;29;19926;-96
2023/07/03 13:57:06;;;;;;;;;;;17.50;60.00;;;;;;4913921;28;20453;-96
2023/07/03 14:28:05;;;;;;;;;;;;;;;;;;;;;
2023/07/03 14:35:47;;;;;;;;;;;17.50;60.10;;;;;;4931379;23;19926;-96
2023/07/03 14:38:35;;;;;;;;;;;17.60;59.80;;;;;;4873779;29;19934;-96
2023/07/03 14:41:05;;;;;;;;;;;17.80;59.60;;;;;;4882348;29;19990;-95
2023/07/03 14:43:45;;;;;;;;;;;18.00;59.40;;;;;;4888357;29;19937;-96
2023/07/03 14:46:43;;;;;;;;;;;18.10;58.60;;;;;;4893012;28;19940;-96
2023/07/03 14:49:09;;;;;;;;;;;18.10;58.20;;;;;;4878992;29;19970;-93
2023/07/03 14:55:39;;;;;;;;;;;18.20;58.30;;;;;;4920181;29;21363;-96
2023/07/03 14:58:38;;;;;;;;;;;18.20;58.10;;;;;;4915250;29;20834;-96
2023/07/03 16:27:39;;;;;;;;;;;;;;;;;;;;;
2023/07/03 17:11:50;;;;;;;;;;;16.30;61.70;;;;;;6072391;23;20013;-96
2023/07/03 17:31:23;;;;;;;;;;;16.40;60.80;;;;;;5983009;24;20035;-95
2023/07/03 17:44:07;;;;;;;;;;;16.40;61.30;;;;;;5866672;24;19916;-95
2023/07/03 17:47:18;;;;;;;;;;;16.40;61.30;;;;;;5870136;24;20609;-96
2023/07/03 17:49:44;;;;;;;;;;;16.40;61.00;;;;;;5816299;24;20409;-91
2023/07/03 18:00:11;;;;;;;;;;;;;;;;;;;;;
2023/07/03 19:02:03;;;;;;;;;;;15.80;67.60;;;;;;5965795;23;19962;-96
2023/07/03 19:05:03;;;;;;;;;;;15.70;69.60;;;;;;5982369;23;19934;-96
2023/07/03 19:07:34;;;;;;;;;;;15.50;70.60;;;;;;5996292;23;19922;-93
2023/07/03 19:10:05;;;;;;;;;;;15.20;70.00;;;;;;6013138;23;19925;-93
2023/07/03 19:12:45;;;;;;;;;;;14.90;70.90;;;;;;6031901;23;19921;-95
2023/07/03 19:15:45;;;;;;;;;;;14.70;71.50;;;;;;6057410;23;20327;-94
2023/07/03 19:25:10;;;;;;;;;;;14.10;75.00;;;;;;5901421;24;20371;-93
2023/07/03 19:32:04;;;;;;;;;;;14.00;76.30;;;;;;6006499;23;20245;-94
2023/07/03 19:35:12;;;;;;;;;;;13.90;76.90;;;;;;6015525;23;19926;-96
2023/07/03 19:38:21;;;;;;;;;;;13.90;77.30;;;;;;5995120;23;19926;-96
2023/07/03 19:41:11;;;;;;;;;;;13.90;77.80;;;;;;6007816;23;19922;-96
2023/07/03 19:54:45;;;;;;;;;;;;;;;;;;;;;
2023/07/03 20:56:46;;;;;;;;;;;10.80;82.30;;;;;;6177028;22;2030340;-91
2023/07/03 20:59:14;;;;;;;;;;;10.70;82.50;;;;;;6131282;23;20313;-92
2023/07/03 21:01:42;;;;;;;;;;;10.70;82.40;;;;;;6134254;23;19959;-94
2023/07/03 21:04:08;;;;;;;;;;;10.70;82.60;;;;;;6131477;23;19987;-94
2023/07/03 21:06:35;;;;;;;;;;;10.70;82.20;;;;;;6105183;23;19916;-93
2023/07/03 21:09:04;;;;;;;;;;;10.70;82.00;;;;;;6129523;23;19921;-93
2023/07/03 21:11:31;;;;;;;;;;;10.70;82.20;;;;;;6133648;23;19932;-93
2023/07/03 21:13:58;;;;;;;;;;;10.70;82.40;;;;;;6130880;23;20000;-93
2023/07/03 21:16:29;;;;;;;;;;;10.70;82.30;;;;;;6129957;23;20000;-92
2023/07/03 21:18:54;;;;;;;;;;;10.70;82.50;;;;;;6128052;23;19928;-92
2023/07/03 21:21:21;;;;;;;;;;;10.70;82.30;;;;;;6132825;23;19978;-92
2023/07/03 21:23:47;;;;;;;;;;;10.70;82.40;;;;;;6116967;23;20043;-93
2023/07/03 21:26:17;;;;;;;;;;;10.70;82.10;;;;;;6125507;23;19996;-95
2023/07/03 21:28:44;;;;;;;;;;;10.70;82.30;;;;;;6073368;23;19991;-93
2023/07/03 21:31:11;;;;;;;;;;;10.70;82.20;;;;;;6122075;23;19921;-92
2023/07/03 21:33:47;;;;;;;;;;;;;;;;;;;;;
2023/07/03 21:36:18;;;;;;;;;;;10.60;82.30;;;;;;6150493;23;19931;-93
2023/07/03 21:38:45;;;;;;;;;;;10.70;82.20;;;;;;6121835;23;20011;-92
2023/07/03 21:41:16;;;;;;;;;;;10.60;82.40;;;;;;6126379;23;20225;-94
2023/07/03 21:43:42;;;;;;;;;;;10.70;82.50;;;;;;6069209;23;19931;-93
2023/07/03 21:46:15;;;;;;;;;;;10.70;82.40;;;;;;6125936;23;20003;-93
2023/07/03 21:48:42;;;;;;;;;;;10.70;82.70;;;;;;6090449;23;19925;-94
2023/07/03 21:51:10;;;;;;;;;;;10.60;82.80;;;;;;6122457;23;19921;-92
2023/07/03 21:53:49;;;;;;;;;;;10.70;82.80;;;;;;6124440;23;19924;-95
2023/07/03 21:56:24;;;;;;;;;;;10.70;82.90;;;;;;6101517;23;19977;-93
2023/07/03 21:59:11;;;;;;;;;;;10.70;83.00;;;;;;6121781;23;19924;-93
2023/07/03 22:01:51;;;;;;;;;;;;;;;;;;;;;
2023/07/03 22:07:38;;;;;;;;;;;10.70;83.20;;;;;;6158203;23;19924;-94
2023/07/03 22:10:04;;;;;;;;;;;10.80;83.20;;;;;;6103465;23;20387;-92
